Аэропорт: Курск-Восточный . Курск

ICAO: UUOK

METAR:
2018/05/20 16:00
UUOK 201600Z 01003MPS 330V050 9999 -SHRA BKN033CB 15/12 Q1016 R30/CLRD65 NOSIG RMK QFE743/0991
METAR:
Информация по данной станции не доступна